sensor_id;sensor_type;location;lat;lon;timestamp;pressure;altitude;pressure_sealevel;temperature;humidity
64841;BME280;51307;52.162;7.560;2024-02-15T00:02:04;101152.78;;;11.34;100.00
64841;BME280;51307;52.162;7.560;2024-02-15T00:04:29;101159.03;;;11.42;100.00
64841;BME280;51307;52.162;7.560;2024-02-15T00:06:55;101171.13;;;11.47;100.00
64841;BME280;51307;52.162;7.560;2024-02-15T00:09:21;101158.50;;;11.39;100.00
64841;BME280;51307;52.162;7.560;2024-02-15T00:11:47;101159.31;;;11.57;100.00
64841;BME280;51307;52.162;7.560;2024-02-15T00:14:13;101160.31;;;11.12;100.00
64841;BME280;51307;52.162;7.560;2024-02-15T00:16:38;101165.44;;;11.50;100.00
64841;BME280;51307;52.162;7.560;2024-02-15T00:19:03;101165.84;;;11.37;100.00
64841;BME280;51307;52.162;7.560;2024-02-15T00:21:29;101173.38;;;11.33;100.00
64841;BME280;51307;52.162;7.560;2024-02-15T00:23:54;101164.59;;;11.49;100.00
64841;BME280;51307;52.162;7.560;2024-02-15T00:26:22;101169.09;;;11.49;100.00
64841;BME280;51307;52.162;7.560;2024-02-15T00:28:47;101154.13;;;11.38;100.00
64841;BME280;51307;52.162;7.560;2024-02-15T00:31:14;101154.19;;;11.46;100.00
64841;BME280;51307;52.162;7.560;2024-02-15T00:33:39;101165.00;;;11.36;100.00
64841;BME280;51307;52.162;7.560;2024-02-15T00:36:06;101169.97;;;11.49;100.00
64841;BME280;51307;52.162;7.560;2024-02-15T00:38:32;101162.97;;;11.56;100.00
64841;BME280;51307;52.162;7.560;2024-02-15T00:40:58;101157.66;;;11.38;100.00
64841;BME280;51307;52.162;7.560;2024-02-15T00:43:26;101154.19;;;11.46;100.00
64841;BME280;51307;52.162;7.560;2024-02-15T00:45:51;101160.41;;;11.47;100.00
64841;BME280;51307;52.162;7.560;2024-02-15T00:48:17;101160.09;;;11.50;100.00
64841;BME280;51307;52.162;7.560;2024-02-15T00:50:42;101162.00;;;11.39;100.00
64841;BME280;51307;52.162;7.560;2024-02-15T00:53:08;101164.91;;;11.46;100.00
64841;BME280;51307;52.162;7.560;2024-02-15T00:55:33;101163.25;;;11.45;100.00
64841;BME280;51307;52.162;7.560;2024-02-15T00:57:59;101159.59;;;11.28;100.00
64841;BME280;51307;52.162;7.560;2024-02-15T01:00:24;101161.50;;;11.36;100.00
64841;BME280;51307;52.162;7.560;2024-02-15T01:02:51;101159.50;;;11.38;100.00
64841;BME280;51307;52.162;7.560;2024-02-15T01:05:18;101160.03;;;11.41;100.00
64841;BME280;51307;52.162;7.560;2024-02-15T01:07:44;101163.31;;;11.35;100.00
64841;BME280;51307;52.162;7.560;2024-02-15T01:10:09;101158.22;;;11.50;100.00
64841;BME280;51307;52.162;7.560;2024-02-15T01:12:35;101162.53;;;11.43;100.00
64841;BME280;51307;52.162;7.560;2024-02-15T01:15:01;101165.75;;;11.47;100.00
64841;BME280;51307;52.162;7.560;2024-02-15T01:17:27;101164.25;;;11.26;100.00
64841;BME280;51307;52.162;7.560;2024-02-15T01:19:52;101165.44;;;11.50;100.00
64841;BME280;51307;52.162;7.560;2024-02-15T01:22:18;101173.84;;;11.55;100.00
64841;BME280;51307;52.162;7.560;2024-02-15T01:24:45;101177.03;;;11.32;100.00
64841;BME280;51307;52.162;7.560;2024-02-15T01:27:10;101178.56;;;11.35;100.00
64841;BME280;51307;52.162;7.560;2024-02-15T01:29:36;101167.22;;;11.41;100.00
64841;BME280;51307;52.162;7.560;2024-02-15T01:32:01;101172.88;;;11.38;100.00
64841;BME280;51307;52.162;7.560;2024-02-15T01:34:28;101168.06;;;11.41;100.00
64841;BME280;51307;52.162;7.560;2024-02-15T01:36:53;101173.75;;;11.38;100.00
64841;BME280;51307;52.162;7.560;2024-02-15T01:39:19;101178.13;;;11.48;100.00
64841;BME280;51307;52.162;7.560;2024-02-15T01:41:48;101176.56;;;11.37;100.00
64841;BME280;51307;52.162;7.560;2024-02-15T01:44:18;101177.81;;;11.24;100.00
64841;BME280;51307;52.162;7.560;2024-02-15T01:46:47;101180.47;;;11.42;100.00
64841;BME280;51307;52.162;7.560;2024-02-15T01:49:14;101182.50;;;11.49;100.00
64841;BME280;51307;52.162;7.560;2024-02-15T01:51:42;101180.16;;;11.46;100.00
64841;BME280;51307;52.162;7.560;2024-02-15T01:54:10;101178.50;;;11.53;100.00
64841;BME280;51307;52.162;7.560;2024-02-15T01:56:37;101168.06;;;11.41;100.00
64841;BME280;51307;52.162;7.560;2024-02-15T01:59:04;101176.56;;;11.37;100.00
64841;BME280;51307;52.162;7.560;2024-02-15T02:01:31;101181.56;;;11.32;100.00
64841;BME280;51307;52.162;7.560;2024-02-15T02:03:58;101170.38;;;11.36;100.00
64841;BME280;51307;52.162;7.560;2024-02-15T02:06:25;101172.06;;;11.37;100.00
64841;BME280;51307;52.162;7.560;2024-02-15T02:08:52;101161.50;;;11.18;100.00
64841;BME280;51307;52.162;7.560;2024-02-15T02:11:22;101168.91;;;11.42;100.00
64841;BME280;51307;52.162;7.560;2024-02-15T02:13:48;101171.41;;;11.43;100.00
64841;BME280;51307;52.162;7.560;2024-02-15T02:16:32;101164.91;;;11.46;100.00
64841;BME280;51307;52.162;7.560;2024-02-15T02:18:58;101164.06;;;11.46;100.00
64841;BME280;51307;52.162;7.560;2024-02-15T02:21:26;101160.75;;;11.52;100.00
64841;BME280;51307;52.162;7.560;2024-02-15T02:23:56;101162.44;;;11.53;100.00
64841;BME280;51307;52.162;7.560;2024-02-15T02:26:22;101164.91;;;11.46;100.00
64841;BME280;51307;52.162;7.560;2024-02-15T02:28:49;101154.03;;;11.48;100.00
64841;BME280;51307;52.162;7.560;2024-02-15T02:31:14;101157.56;;;11.48;100.00
64841;BME280;51307;52.162;7.560;2024-02-15T02:33:50;101163.25;;;11.45;100.00
64841;BME280;51307;52.162;7.560;2024-02-15T02:36:19;101161.72;;;11.42;100.00
64841;BME280;51307;52.162;7.560;2024-02-15T02:38:45;101159.81;;;11.35;100.00
64841;BME280;51307;52.162;7.560;2024-02-15T02:41:11;101154.66;;;11.41;100.00
64841;BME280;51307;52.162;7.560;2024-02-15T02:43:40;101143.69;;;11.53;100.00
64841;BME280;51307;52.162;7.560;2024-02-15T02:46:06;101142.31;;;11.49;100.00
64841;BME280;51307;52.162;7.560;2024-02-15T02:48:32;101142.09;;;11.42;100.00
64841;BME280;51307;52.162;7.560;2024-02-15T02:50:58;101153.56;;;11.52;100.00
64841;BME280;51307;52.162;7.560;2024-02-15T02:53:24;101157.28;;;11.33;100.00
64841;BME280;51307;52.162;7.560;2024-02-15T02:55:49;101147.84;;;11.47;100.00
64841;BME280;51307;52.162;7.560;2024-02-15T02:58:15;101145.38;;;11.54;100.00
64841;BME280;51307;52.162;7.560;2024-02-15T03:00:40;101148.53;;;11.49;100.00
64841;BME280;51307;52.162;7.560;2024-02-15T03:03:06;101142.19;;;11.58;100.00
64841;BME280;51307;52.162;7.560;2024-02-15T03:05:31;101144.41;;;11.63;100.00
64841;BME280;51307;52.162;7.560;2024-02-15T03:07:57;101139.84;;;11.55;100.00
64841;BME280;51307;52.162;7.560;2024-02-15T03:10:22;101149.84;;;11.45;100.00
64841;BME280;51307;52.162;7.560;2024-02-15T03:12:49;101141.69;;;11.55;100.00
64841;BME280;51307;52.162;7.560;2024-02-15T03:15:16;101145.41;;;11.62;100.00
64841;BME280;51307;52.162;7.560;2024-02-15T03:17:43;101141.25;;;11.68;100.00
64841;BME280;51307;52.162;7.560;2024-02-15T03:20:10;101146.94;;;11.65;100.00
64841;BME280;51307;52.162;7.560;2024-02-15T03:22:38;101150.31;;;11.67;100.00
64841;BME280;51307;52.162;7.560;2024-02-15T03:25:05;101140.22;;;11.60;100.00
64841;BME280;51307;52.162;7.560;2024-02-15T03:27:35;101146.06;;;11.56;100.00
64841;BME280;51307;52.162;7.560;2024-02-15T03:30:03;101142.06;;;11.60;100.00
64841;BME280;51307;52.162;7.560;2024-02-15T03:32:29;101146.09;;;11.64;100.00
64841;BME280;51307;52.162;7.560;2024-02-15T03:34:55;101145.25;;;11.64;100.00
64841;BME280;51307;52.162;7.560;2024-02-15T03:37:20;101145.94;;;11.66;100.00
64841;BME280;51307;52.162;7.560;2024-02-15T03:39:46;101140.09;;;11.70;100.00
64841;BME280;51307;52.162;7.560;2024-02-15T03:42:12;101142.56;;;11.64;100.00
64841;BME280;51307;52.162;7.560;2024-02-15T03:44:38;101137.41;;;11.70;100.00
64841;BME280;51307;52.162;7.560;2024-02-15T03:47:04;101134.44;;;11.73;100.00
64841;BME280;51307;52.162;7.560;2024-02-15T03:49:30;101130.41;;;11.69;100.00
64841;BME280;51307;52.162;7.560;2024-02-15T03:51:57;101136.25;;;11.73;100.00
64841;BME280;51307;52.162;7.560;2024-02-15T03:54:25;101140.41;;;11.67;100.00
64841;BME280;51307;52.162;7.560;2024-02-15T03:56:51;101140.06;;;11.62;100.00
64841;BME280;51307;52.162;7.560;2024-02-15T03:59:21;101143.47;;;11.72;100.00
64841;BME280;51307;52.162;7.560;2024-02-15T04:01:47;101138.44;;;11.69;100.00
64841;BME280;51307;52.162;7.560;2024-02-15T04:04:13;101140.41;;;11.67;100.00
64841;BME280;51307;52.162;7.560;2024-02-15T04:06:39;101139.25;;;11.70;100.00
64841;BME280;51307;52.162;7.560;2024-02-15T04:09:05;101148.47;;;11.67;100.00
64841;BME280;51307;52.162;7.560;2024-02-15T04:11:32;101148.81;;;11.72;100.00
64841;BME280;51307;52.162;7.560;2024-02-15T04:13:58;101149.81;;;11.71;100.00
64841;BME280;51307;52.162;7.560;2024-02-15T04:16:24;101144.75;;;11.60;100.00
64841;BME280;51307;52.162;7.560;2024-02-15T04:18:50;101139.59;;;11.67;100.00
64841;BME280;51307;52.162;7.560;2024-02-15T04:21:16;101141.25;;;11.68;100.00
64841;BME280;51307;52.162;7.560;2024-02-15T04:23:45;101140.09;;;11.70;100.00
64841;BME280;51307;52.162;7.560;2024-02-15T04:26:11;101140.41;;;11.67;100.00
64841;BME280;51307;52.162;7.560;2024-02-15T04:28:40;101136.41;;;11.71;100.00
64841;BME280;51307;52.162;7.560;2024-02-15T04:31:06;101148.81;;;11.72;100.00
64841;BME280;51307;52.162;7.560;2024-02-15T04:33:34;101151.88;;;11.77;100.00
64841;BME280;51307;52.162;7.560;2024-02-15T04:36:00;101147.66;;;11.75;100.00
64841;BME280;51307;52.162;7.560;2024-02-15T04:38:29;101149.88;;;11.80;100.00
64841;BME280;51307;52.162;7.560;2024-02-15T04:40:55;101148.34;;;11.77;100.00
64841;BME280;51307;52.162;7.560;2024-02-15T04:43:21;101139.59;;;11.67;100.00
64841;BME280;51307;52.162;7.560;2024-02-15T04:45:48;101141.44;;;11.74;100.00
64841;BME280;51307;52.162;7.560;2024-02-15T04:48:13;101141.78;;;11.71;100.00
64841;BME280;51307;52.162;7.560;2024-02-15T04:50:39;101131.25;;;11.78;100.00
64841;BME280;51307;52.162;7.560;2024-02-15T04:53:08;101134.44;;;11.73;100.00
64841;BME280;51307;52.162;7.560;2024-02-15T04:55:34;101141.44;;;11.74;100.00
64841;BME280;51307;52.162;7.560;2024-02-15T04:58:01;101144.47;;;11.71;100.00
64841;BME280;51307;52.162;7.560;2024-02-15T05:00:26;101146.50;;;11.77;100.00
64841;BME280;51307;52.162;7.560;2024-02-15T05:02:52;101147.13;;;11.71;100.00
64841;BME280;51307;52.162;7.560;2024-02-15T05:05:19;101136.09;;;11.74;100.00
64841;BME280;51307;52.162;7.560;2024-02-15T05:07:44;101134.44;;;11.73;100.00
64841;BME280;51307;52.162;7.560;2024-02-15T05:10:10;101125.81;;;11.61;100.00
64841;BME280;51307;52.162;7.560;2024-02-15T05:12:37;101124.00;;;11.70;100.00
64841;BME280;51307;52.162;7.560;2024-02-15T05:15:05;101120.13;;;11.65;100.00
64841;BME280;51307;52.162;7.560;2024-02-15T05:17:39;101115.75;;;11.64;100.00
64841;BME280;51307;52.162;7.560;2024-02-15T05:20:09;101111.34;;;11.54;100.00
64841;BME280;51307;52.162;7.560;2024-02-15T05:22:39;101115.72;;;11.55;100.00
64841;BME280;51307;52.162;7.560;2024-02-15T05:25:06;101114.56;;;11.58;100.00
64841;BME280;51307;52.162;7.560;2024-02-15T05:27:33;101122.28;;;11.61;100.00
64841;BME280;51307;52.162;7.560;2024-02-15T05:29:59;101116.91;;;11.61;100.00
64841;BME280;51307;52.162;7.560;2024-02-15T05:32:24;101115.09;;;11.61;100.00
64841;BME280;51307;52.162;7.560;2024-02-15T05:34:51;101113.75;;;11.57;100.00
64841;BME280;51307;52.162;7.560;2024-02-15T05:37:17;101110.25;;;11.65;100.00
64841;BME280;51307;52.162;7.560;2024-02-15T05:39:42;101108.88;;;11.61;100.00
64841;BME280;51307;52.162;7.560;2024-02-15T05:42:08;101095.97;;;11.56;100.00
64841;BME280;51307;52.162;7.560;2024-02-15T05:44:35;101103.22;;;11.64;100.00
64841;BME280;51307;52.162;7.560;2024-02-15T05:47:01;101105.88;;;11.56;100.00
64841;BME280;51307;52.162;7.560;2024-02-15T05:49:26;101108.53;;;11.56;100.00
64841;BME280;51307;52.162;7.560;2024-02-15T05:51:53;101108.19;;;11.51;100.00
64841;BME280;51307;52.162;7.560;2024-02-15T05:54:19;101112.06;;;11.56;100.00
64841;BME280;51307;52.162;7.560;2024-02-15T05:56:44;101101.78;;;11.52;100.00
64841;BME280;51307;52.162;7.560;2024-02-15T05:59:10;101098.97;;;11.53;100.00
64841;BME280;51307;52.162;7.560;2024-02-15T06:01:37;101096.31;;;11.53;100.00
64841;BME280;51307;52.162;7.560;2024-02-15T06:04:04;101093.47;;;11.55;100.00
64841;BME280;51307;52.162;7.560;2024-02-15T06:06:34;101095.97;;;11.56;100.00
64841;BME280;51307;52.162;7.560;2024-02-15T06:08:59;101093.13;;;11.58;100.00
64841;BME280;51307;52.162;7.560;2024-02-15T06:11:25;101096.63;;;11.58;100.00
64841;BME280;51307;52.162;7.560;2024-02-15T06:13:51;101089.91;;;11.54;100.00
64841;BME280;51307;52.162;7.560;2024-02-15T06:16:17;101081.38;;;11.51;100.00
64841;BME280;51307;52.162;7.560;2024-02-15T06:18:43;101079.69;;;11.50;100.00
64841;BME280;51307;52.162;7.560;2024-02-15T06:21:08;101075.66;;;11.46;100.00
64841;BME280;51307;52.162;7.560;2024-02-15T06:23:34;101066.97;;;11.52;100.00
64841;BME280;51307;52.162;7.560;2024-02-15T06:26:01;101070.97;;;11.48;100.00
64841;BME280;51307;52.162;7.560;2024-02-15T06:28:28;101067.28;;;11.49;100.00
64841;BME280;51307;52.162;7.560;2024-02-15T06:31:13;101051.50;;;11.37;100.00
64841;BME280;51307;52.162;7.560;2024-02-15T06:33:57;101052.69;;;11.43;100.00
64841;BME280;51307;52.162;7.560;2024-02-15T06:36:53;101056.53;;;11.40;100.00
64841;BME280;51307;52.162;7.560;2024-02-15T06:39:38;101059.38;;;11.39;100.00
64841;BME280;51307;52.162;7.560;2024-02-15T06:42:04;101057.53;;;11.39;100.00
64841;BME280;51307;52.162;7.560;2024-02-15T06:44:30;101055.72;;;11.40;100.00
64841;BME280;51307;52.162;7.560;2024-02-15T06:46:55;101056.38;;;11.42;100.00
64841;BME280;51307;52.162;7.560;2024-02-15T06:49:23;101070.28;;;11.46;100.00
64841;BME280;51307;52.162;7.560;2024-02-15T06:51:50;101069.63;;;11.52;100.00
64841;BME280;51307;52.162;7.560;2024-02-15T06:54:16;101073.75;;;11.38;100.00
64841;BME280;51307;52.162;7.560;2024-02-15T06:56:44;101071.94;;;11.38;100.00
64841;BME280;51307;52.162;7.560;2024-02-15T06:59:12;101080.19;;;11.45;100.00
64841;BME280;51307;52.162;7.560;2024-02-15T07:01:41;101083.03;;;11.52;100.00
64841;BME280;51307;52.162;7.560;2024-02-15T07:04:07;101081.88;;;11.54;100.00
64841;BME280;51307;52.162;7.560;2024-02-15T07:06:36;101091.44;;;11.57;100.00
64841;BME280;51307;52.162;7.560;2024-02-15T07:09:05;101095.28;;;11.54;100.00
64841;BME280;51307;52.162;7.560;2024-02-15T07:11:35;101092.47;;;11.56;100.00
64841;BME280;51307;52.162;7.560;2024-02-15T07:14:01;101085.41;;;11.55;100.00
64841;BME280;51307;52.162;7.560;2024-02-15T07:16:27;101083.56;;;11.55;100.00
64841;BME280;51307;52.162;7.560;2024-02-15T07:18:52;101069.13;;;11.48;100.00
64841;BME280;51307;52.162;7.560;2024-02-15T07:21:19;101074.16;;;11.51;100.00
64841;BME280;51307;52.162;7.560;2024-02-15T07:23:48;101055.41;;;11.51;100.00
64841;BME280;51307;52.162;7.560;2024-02-15T07:26:14;101057.25;;;11.51;100.00
64841;BME280;51307;52.162;7.560;2024-02-15T07:28:40;101043.00;;;11.50;100.00
64841;BME280;51307;52.162;7.560;2024-02-15T07:31:06;101040.16;;;11.52;100.00
64841;BME280;51307;52.162;7.560;2024-02-15T07:33:32;101033.63;;;11.46;100.00
64841;BME280;51307;52.162;7.560;2024-02-15T07:35:57;101039.31;;;11.43;100.00
64841;BME280;51307;52.162;7.560;2024-02-15T07:38:23;101031.78;;;11.47;100.00
64841;BME280;51307;52.162;7.560;2024-02-15T07:40:50;101028.09;;;11.48;100.00
64841;BME280;51307;52.162;7.560;2024-02-15T07:43:16;101037.84;;;11.57;100.00
64841;BME280;51307;52.162;7.560;2024-02-15T07:45:42;101044.91;;;11.58;100.00
64841;BME280;51307;52.162;7.560;2024-02-15T07:48:08;101047.56;;;11.58;100.00
64841;BME280;51307;52.162;7.560;2024-02-15T07:50:34;101056.97;;;11.62;100.00
64841;BME280;51307;52.162;7.560;2024-02-15T07:53:03;101062.66;;;11.59;100.00
64841;BME280;51307;52.162;7.560;2024-02-15T07:55:28;101060.81;;;11.59;100.00
64841;BME280;51307;52.162;7.560;2024-02-15T07:57:54;101074.72;;;11.63;100.00
64841;BME280;51307;52.162;7.560;2024-02-15T08:00:21;101081.41;;;11.59;100.00
64841;BME280;51307;52.162;7.560;2024-02-15T08:02:46;101082.94;;;11.61;100.00
64841;BME280;51307;52.162;7.560;2024-02-15T08:05:12;101081.94;;;11.63;100.00
64841;BME280;51307;52.162;7.560;2024-02-15T08:07:44;101081.75;;;11.56;100.00
64841;BME280;51307;52.162;7.560;2024-02-15T08:10:11;101073.38;;;11.59;100.00
64841;BME280;51307;52.162;7.560;2024-02-15T08:12:43;101072.38;;;11.60;100.00
64841;BME280;51307;52.162;7.560;2024-02-15T08:15:10;101071.34;;;11.61;100.00
64841;BME280;51307;52.162;7.560;2024-02-15T08:17:43;101066.38;;;11.66;100.00
64841;BME280;51307;52.162;7.560;2024-02-15T08:20:12;101076.41;;;11.64;100.00
64841;BME280;51307;52.162;7.560;2024-02-15T08:22:39;101078.94;;;11.66;100.00
64841;BME280;51307;52.162;7.560;2024-02-15T08:25:10;101068.69;;;11.61;100.00
64841;BME280;51307;52.162;7.560;2024-02-15T08:27:40;101064.69;;;11.65;100.00
64841;BME280;51307;52.162;7.560;2024-02-15T08:30:10;101070.41;;;11.70;100.00
64841;BME280;51307;52.162;7.560;2024-02-15T08:32:40;101066.84;;;11.61;100.00
64841;BME280;51307;52.162;7.560;2024-02-15T08:35:07;101060.34;;;11.64;100.00
64841;BME280;51307;52.162;7.560;2024-02-15T08:37:36;101054.66;;;11.67;100.00
64841;BME280;51307;52.162;7.560;2024-02-15T08:40:07;101058.66;;;11.63;100.00
64841;BME280;51307;52.162;7.560;2024-02-15T08:42:43;101054.97;;;11.64;100.00
64841;BME280;51307;52.162;7.560;2024-02-15T08:45:09;101054.94;;;11.56;100.00
64841;BME280;51307;52.162;7.560;2024-02-15T08:47:36;101060.34;;;11.64;100.00
64841;BME280;51307;52.162;7.560;2024-02-15T08:50:03;101060.34;;;11.64;100.00
64841;BME280;51307;52.162;7.560;2024-02-15T08:52:30;101059.19;;;11.67;100.00
64841;BME280;51307;52.162;7.560;2024-02-15T08:54:55;101067.72;;;11.70;100.00
64841;BME280;51307;52.162;7.560;2024-02-15T08:57:23;101065.34;;;11.59;100.00
64841;BME280;51307;52.162;7.560;2024-02-15T08:59:48;101073.56;;;11.66;100.00
64841;BME280;51307;52.162;7.560;2024-02-15T09:02:17;101065.69;;;11.64;100.00
64841;BME280;51307;52.162;7.560;2024-02-15T09:04:43;101079.75;;;11.66;100.00
64841;BME280;51307;52.162;7.560;2024-02-15T09:07:09;101076.63;;;11.71;100.00
64841;BME280;51307;52.162;7.560;2024-02-15T09:09:35;101079.94;;;11.65;100.00
64841;BME280;51307;52.162;7.560;2024-02-15T09:12:05;101075.75;;;11.70;100.00
64841;BME280;51307;52.162;7.560;2024-02-15T09:14:34;101079.94;;;11.65;100.00
64841;BME280;51307;52.162;7.560;2024-02-15T09:17:02;101078.59;;;11.69;100.00
64841;BME280;51307;52.162;7.560;2024-02-15T09:19:35;101082.94;;;11.61;100.00
64841;BME280;51307;52.162;7.560;2024-02-15T09:22:03;101088.16;;;11.71;100.00
64841;BME280;51307;52.162;7.560;2024-02-15T09:24:30;101091.03;;;11.70;100.00
64841;BME280;51307;52.162;7.560;2024-02-15T09:26:56;101091.34;;;11.67;100.00
64841;BME280;51307;52.162;7.560;2024-02-15T09:29:21;101089.81;;;11.64;100.00
64841;BME280;51307;52.162;7.560;2024-02-15T09:31:47;101086.94;;;11.57;100.00
64841;BME280;51307;52.162;7.560;2024-02-15T09:34:13;101090.63;;;11.56;100.00
64841;BME280;51307;52.162;7.560;2024-02-15T09:36:38;101092.50;;;11.64;100.00
64841;BME280;51307;52.162;7.560;2024-02-15T09:39:04;101086.81;;;11.67;100.00
64841;BME280;51307;52.162;7.560;2024-02-15T09:41:30;101082.94;;;11.61;100.00
64841;BME280;51307;52.162;7.560;2024-02-15T09:43:55;101083.25;;;11.58;100.00
64841;BME280;51307;52.162;7.560;2024-02-15T09:46:21;101072.06;;;11.63;100.00
64841;BME280;51307;52.162;7.560;2024-02-15T09:48:50;101081.06;;;11.54;100.00
64841;BME280;51307;52.162;7.560;2024-02-15T09:51:18;101071.84;;;11.56;100.00
64841;BME280;51307;52.162;7.560;2024-02-15T09:53:44;101059.97;;;11.59;100.00
64841;BME280;51307;52.162;7.560;2024-02-15T09:56:13;101058.78;;;11.53;100.00
64841;BME280;51307;52.162;7.560;2024-02-15T09:58:40;101053.09;;;11.56;100.00
64841;BME280;51307;52.162;7.560;2024-02-15T10:01:10;101043.53;;;11.54;100.00
64841;BME280;51307;52.162;7.560;2024-02-15T10:03:39;101031.97;;;11.45;100.00
64841;BME280;51307;52.162;7.560;2024-02-15T10:06:08;101026.63;;;11.53;100.00
64841;BME280;51307;52.162;7.560;2024-02-15T10:08:33;101027.63;;;11.52;100.00
64841;BME280;51307;52.162;7.560;2024-02-15T10:11:08;101023.75;;;11.47;100.00
64841;BME280;51307;52.162;7.560;2024-02-15T10:13:35;101036.69;;;11.59;100.00
64841;BME280;51307;52.162;7.560;2024-02-15T10:16:19;101033.44;;;11.48;100.00
64841;BME280;51307;52.162;7.560;2024-02-15T10:18:50;101011.19;;;11.47;100.00
64841;BME280;51307;52.162;7.560;2024-02-15T10:21:28;100993.38;;;11.38;100.00
64841;BME280;51307;52.162;7.560;2024-02-15T10:24:08;101024.22;;;11.42;100.00
64841;BME280;51307;52.162;7.560;2024-02-15T10:26:35;101026.19;;;11.32;100.00
64841;BME280;51307;52.162;7.560;2024-02-15T10:29:09;101015.69;;;11.38;100.00
64841;BME280;51307;52.162;7.560;2024-02-15T10:31:35;100991.56;;;11.38;100.00
64841;BME280;51307;52.162;7.560;2024-02-15T10:34:04;100989.97;;;11.27;100.00
64841;BME280;51307;52.162;7.560;2024-02-15T10:36:30;100987.38;;;11.36;100.00
64841;BME280;51307;52.162;7.560;2024-02-15T10:39:19;100982.84;;;11.36;100.00
64841;BME280;51307;52.162;7.560;2024-02-15T10:41:50;100971.13;;;11.37;100.00
64841;BME280;51307;52.162;7.560;2024-02-15T10:44:18;100975.69;;;11.45;100.00
64841;BME280;51307;52.162;7.560;2024-02-15T10:46:45;100978.88;;;11.49;100.00
64841;BME280;51307;52.162;7.560;2024-02-15T10:49:12;100985.22;;;11.48;100.00
64841;BME280;51307;52.162;7.560;2024-02-15T10:51:43;100985.69;;;11.35;100.00
64841;BME280;51307;52.162;7.560;2024-02-15T10:54:12;100977.50;;;11.44;100.00
64841;BME280;51307;52.162;7.560;2024-02-15T10:56:43;100984.38;;;11.39;100.00
64841;BME280;51307;52.162;7.560;2024-02-15T10:59:18;100987.03;;;11.39;100.00
64841;BME280;51307;52.162;7.560;2024-02-15T11:01:46;100988.88;;;11.38;100.00
64841;BME280;51307;52.162;7.560;2024-02-15T11:04:20;100994.75;;;11.42;100.00
64841;BME280;51307;52.162;7.560;2024-02-15T11:06:55;100986.72;;;11.42;100.00
64841;BME280;51307;52.162;7.560;2024-02-15T11:09:21;100988.25;;;11.53;100.00
64841;BME280;51307;52.162;7.560;2024-02-15T11:11:48;100991.28;;;11.58;100.00
64841;BME280;51307;52.162;7.560;2024-02-15T11:16:52;100999.31;;;11.50;100.00
64841;BME280;51307;52.162;7.560;2024-02-15T11:19:43;100992.00;;;11.60;100.00
64841;BME280;51307;52.162;7.560;2024-02-15T11:22:16;100990.66;;;11.64;100.00
64841;BME280;51307;52.162;7.560;2024-02-15T11:24:49;100991.31;;;11.66;100.00
64841;BME280;51307;52.162;7.560;2024-02-15T11:27:30;100992.31;;;11.65;100.00
64841;BME280;51307;52.162;7.560;2024-02-15T11:30:01;101000.72;;;11.70;100.00
64841;BME280;51307;52.162;7.560;2024-02-15T11:32:46;101003.38;;;11.70;100.00
64841;BME280;51307;52.162;7.560;2024-02-15T11:35:16;101001.72;;;11.69;100.00
64841;BME280;51307;52.162;7.560;2024-02-15T11:42:51;100996.06;;;11.81;100.00
64841;BME280;51307;52.162;7.560;2024-02-15T11:45:19;100994.34;;;11.71;100.00
64841;BME280;51307;52.162;7.560;2024-02-15T11:47:50;100994.72;;;11.85;100.00
64841;BME280;51307;52.162;7.560;2024-02-15T11:50:21;100996.94;;;11.89;100.00
64841;BME280;51307;52.162;7.560;2024-02-15T11:52:48;100989.41;;;11.93;100.00
64841;BME280;51307;52.162;7.560;2024-02-15T11:55:21;100985.22;;;11.90;100.00
64841;BME280;51307;52.162;7.560;2024-02-15T12:00:28;100986.44;;;12.04;100.00
64841;BME280;51307;52.162;7.560;2024-02-15T12:03:17;100988.44;;;12.02;100.00
64841;BME280;51307;52.162;7.560;2024-02-15T12:06:02;100992.97;;;12.02;100.00
64841;BME280;51307;52.162;7.560;2024-02-15T12:08:47;100988.25;;;12.04;100.00
64841;BME280;51307;52.162;7.560;2024-02-15T12:11:32;100986.75;;;12.01;100.00
64841;BME280;51307;52.162;7.560;2024-02-15T12:14:17;100980.56;;;12.09;100.00
64841;BME280;51307;52.162;7.560;2024-02-15T12:17:09;100975.03;;;12.10;100.00
64841;BME280;51307;52.162;7.560;2024-02-15T12:19:55;100972.34;;;12.10;100.00
64841;BME280;51307;52.162;7.560;2024-02-15T12:22:25;100975.53;;;12.14;100.00
64841;BME280;51307;52.162;7.560;2024-02-15T12:24:59;100967.16;;;12.17;100.00
64841;BME280;51307;52.162;7.560;2024-02-15T12:27:59;100965.47;;;12.24;100.00
64841;BME280;51307;52.162;7.560;2024-02-15T12:30:26;100970.00;;;12.24;100.00
64841;BME280;51307;52.162;7.560;2024-02-15T12:33:09;100959.63;;;12.29;100.00
64841;BME280;51307;52.162;7.560;2024-02-15T12:35:44;100961.78;;;12.34;100.00
64841;BME280;51307;52.162;7.560;2024-02-15T12:38:12;100960.78;;;12.43;100.00
64841;BME280;51307;52.162;7.560;2024-02-15T12:40:41;100950.38;;;12.40;100.00
64841;BME280;51307;52.162;7.560;2024-02-15T12:43:08;100948.22;;;12.43;100.00
64841;BME280;51307;52.162;7.560;2024-02-15T12:45:39;100953.06;;;12.48;100.00
64841;BME280;51307;52.162;7.560;2024-02-15T12:48:06;100953.56;;;12.52;100.00
64841;BME280;51307;52.162;7.560;2024-02-15T12:50:32;100961.44;;;12.61;100.00
64841;BME280;51307;52.162;7.560;2024-02-15T12:52:58;100964.13;;;12.61;100.00
64841;BME280;51307;52.162;7.560;2024-02-15T12:55:39;100959.91;;;12.67;100.00
64841;BME280;51307;52.162;7.560;2024-02-15T12:58:12;100962.13;;;12.64;100.00